Time;durP1;ratioP1;P1;durP2;ratioP2;P2;SDS_P1;SDS_P2;PMS_P1;PMS_P2;Temp;Humidity;BMP_temperature;BMP_pressure;BME280_temperature;BME280_humidity;BME280_pressure;Samples;Min_cycle;Max_cycle;Signal;HPM_P1;HPM_P2
2022/08/21 00:01:57;;;;;;;7.13;3.15;;;;;;;21.30;41.56;100615.47;10536695;28;20202;-80
2022/08/21 00:07:20;;;;;;;8.02;2.55;;;;;;;20.88;42.50;100622.59;10540090;28;20250;-82
2022/08/21 00:12:45;;;;;;;3.97;2.80;;;;;;;20.83;41.72;100625.03;10518308;28;20254;-82
2022/08/21 00:18:10;;;;;;;7.70;2.72;;;;;;;21.35;41.45;100623.66;10518533;28;20222;-82
2022/08/21 00:23:35;;;;;;;8.45;2.83;;;;;;;20.68;43.27;100618.38;10515010;28;20291;-82
2022/08/21 00:28:57;;;;;;;7.38;3.45;;;;;;;20.43;43.94;100621.03;10498829;28;20300;-82
2022/08/21 00:34:19;;;;;;;6.87;3.13;;;;;;;20.91;41.91;100603.81;10492547;28;20257;-80
2022/08/21 00:39:41;;;;;;;9.82;3.40;;;;;;;20.01;44.22;100607.94;10503419;28;20234;-80
2022/08/21 00:45:05;;;;;;;7.80;3.67;;;;;;;20.12;44.05;100605.19;10509361;28;20308;-82
2022/08/21 00:50:30;;;;;;;12.70;4.00;;;;;;;19.82;44.34;100599.56;10511192;28;20222;-80
2022/08/21 00:55:52;;;;;;;13.02;4.15;;;;;;;20.37;43.93;100591.94;10519720;28;20641;-83
2022/08/21 01:01:15;;;;;;;9.90;5.00;;;;;;;19.80;44.90;100606.88;10524283;28;20624;-85
2022/08/21 01:06:37;;;;;;;10.80;4.40;;;;;;;19.89;45.01;100611.09;10535944;28;20245;-79
2022/08/21 01:11:59;;;;;;;10.15;4.55;;;;;;;19.71;45.18;100605.19;10541048;28;20258;-86
2022/08/21 01:17:22;;;;;;;8.77;4.40;;;;;;;19.70;45.83;100599.84;10506919;28;20242;-85
2022/08/21 01:22:44;;;;;;;8.05;4.03;;;;;;;19.66;45.11;100608.38;10529678;28;20292;-80
2022/08/21 01:28:12;;;;;;;13.13;4.97;;;;;;;19.85;44.32;100610.22;10491794;28;20272;-80
2022/08/21 01:33:34;;;;;;;10.65;4.82;;;;;;;20.04;43.83;100609.22;10485409;28;20256;-85
2022/08/21 01:38:57;;;;;;;10.20;4.83;;;;;;;19.74;44.92;100604.41;10523237;28;20234;-80
2022/08/21 01:44:23;;;;;;;8.20;4.53;;;;;;;19.68;45.18;100605.13;10482726;28;20709;-83
2022/08/21 01:49:45;;;;;;;13.00;5.07;;;;;;;19.68;45.02;100605.13;10497351;28;20229;-83
2022/08/21 01:55:09;;;;;;;11.35;4.95;;;;;;;19.82;44.90;100599.56;10521865;28;20250;-85
2022/08/21 02:00:31;;;;;;;11.47;4.57;;;;;;;19.48;45.33;100598.75;10495370;28;20355;-81
2022/08/21 02:05:54;;;;;;;10.60;4.47;;;;;;;19.75;45.30;100596.66;10531059;28;20190;-85
2022/08/21 02:11:16;;;;;;;8.90;4.53;;;;;;;19.47;45.86;100594.25;10535226;28;20226;-85
2022/08/21 02:16:39;;;;;;;8.40;4.40;;;;;;;19.42;46.19;100600.31;10515157;28;20222;-87
2022/08/21 02:22:02;;;;;;;8.60;4.13;;;;;;;19.72;44.82;100589.66;10537241;28;20213;-87
2022/08/21 02:27:24;;;;;;;6.65;4.35;;;;;;;19.49;46.20;100585.28;10556800;28;20190;-87
2022/08/21 02:32:46;;;;;;;12.93;4.65;;;;;;;19.48;45.80;100584.47;10493978;28;20548;-87
2022/08/21 02:38:14;;;;;;;7.15;4.55;;;;;;;19.55;45.86;100584.53;10549761;28;20576;-88
2022/08/21 02:43:36;;;;;;;10.40;4.55;;;;;;;19.17;46.78;100584.88;10538375;28;20250;-81
2022/08/21 02:48:58;;;;;;;10.03;4.97;;;;;;;19.26;46.73;100588.28;10553018;28;20601;-85
2022/08/21 02:54:21;;;;;;;8.47;4.27;;;;;;;19.23;47.04;100580.50;10528156;28;20210;-85
2022/08/21 02:59:43;;;;;;;5.97;4.00;;;;;;;19.07;47.11;100579.88;10529266;28;20198;-87
2022/08/21 03:05:06;;;;;;;5.03;4.00;;;;;;;18.78;47.79;100588.00;10533249;28;20264;-86
2022/08/21 03:10:30;;;;;;;9.38;5.07;;;;;;;18.82;48.01;100580.31;10509393;28;20279;-85
2022/08/21 03:15:53;;;;;;;9.50;4.57;;;;;;;18.36;49.34;100573.91;10514226;28;20245;-87
2022/08/21 03:21:15;;;;;;;8.30;4.93;;;;;;;18.76;48.04;100576.13;10507513;28;20614;-86
2022/08/21 03:26:37;;;;;;;6.13;4.45;;;;;;;18.58;48.56;100575.06;10504389;28;20688;-87
2022/08/21 03:31:59;;;;;;;7.90;4.50;;;;;;;19.41;46.39;100572.94;10531985;28;20202;-86
2022/08/21 03:37:22;;;;;;;9.17;4.73;;;;;;;19.35;46.36;100571.66;10520718;28;20262;-87
2022/08/21 03:42:46;;;;;;;10.48;5.35;;;;;;;19.45;46.11;100573.81;10538646;28;20279;-86
2022/08/21 03:48:09;;;;;;;7.90;4.18;;;;;;;19.33;46.05;100563.47;10523320;28;20190;-88
2022/08/21 03:53:31;;;;;;;10.90;4.80;;;;;;;19.30;45.91;100572.81;10526343;28;20614;-88
2022/08/21 03:58:53;;;;;;;8.67;5.17;;;;;;;19.08;46.67;100570.91;10540618;28;20571;-88
2022/08/21 04:04:15;;;;;;;9.60;4.63;;;;;;;19.15;46.02;100565.28;10531961;28;20280;-88
2022/08/21 04:09:37;;;;;;;9.17;4.60;;;;;;;19.15;46.13;100581.59;10539123;28;20217;-87
2022/08/21 04:15:01;;;;;;;7.55;4.70;;;;;;;19.20;45.83;100578.41;10492269;28;20268;-87
2022/08/21 04:20:24;;;;;;;8.48;4.40;;;;;;;18.57;47.63;100582.81;10498065;28;20203;-85
2022/08/21 04:25:46;;;;;;;6.28;4.82;;;;;;;18.95;46.25;100578.91;10480119;28;20560;-85
2022/08/21 04:31:09;;;;;;;8.57;4.90;;;;;;;18.59;47.08;100593.84;10494123;28;20591;-82
2022/08/21 04:36:32;;;;;;;9.97;4.60;;;;;;;18.51;47.36;100587.19;10466011;28;20511;-85
2022/08/21 04:41:54;;;;;;;9.97;4.87;;;;;;;18.63;47.21;100591.84;10482635;28;20203;-86
2022/08/21 04:47:17;;;;;;;9.60;4.87;;;;;;;18.57;47.52;100590.56;10493715;28;20183;-86
2022/08/21 04:52:39;;;;;;;9.43;5.03;;;;;;;18.49;47.71;100591.63;10484498;28;20374;-87
2022/08/21 04:58:01;;;;;;;13.50;4.90;;;;;;;18.43;47.28;100585.44;10498108;28;20226;-87
2022/08/21 05:03:24;;;;;;;7.70;4.70;;;;;;;18.60;47.50;100584.91;10504007;28;20225;-85
2022/08/21 05:08:48;;;;;;;15.20;4.87;;;;;;;18.45;47.66;100588.75;10499288;28;20211;-86
2022/08/21 05:14:11;;;;;;;11.90;5.53;;;;;;;18.56;47.52;100588.91;10519602;28;20284;-86
2022/08/21 05:19:33;;;;;;;9.55;5.40;;;;;;;18.90;46.60;100587.78;10538645;28;20208;-86
2022/08/21 05:24:57;;;;;;;9.60;5.07;;;;;;;19.14;46.17;100597.09;10538460;28;20259;-86
2022/08/21 05:30:20;;;;;;;8.75;5.10;;;;;;;19.31;45.57;100599.34;10534898;28;20487;-86
2022/08/21 05:35:43;;;;;;;8.32;5.03;;;;;;;19.31;46.09;100602.22;10567542;27;20232;-87
2022/08/21 05:41:05;;;;;;;6.30;4.63;;;;;;;19.25;45.98;100598.91;10528130;28;20230;-87
2022/08/21 05:46:27;;;;;;;8.90;4.57;;;;;;;19.27;46.21;100595.63;10536864;28;20195;-87
2022/08/21 05:51:49;;;;;;;12.90;4.77;;;;;;;19.41;45.70;100595.81;10532773;28;20203;-85
2022/08/21 05:57:11;;;;;;;7.90;4.40;;;;;;;19.24;46.44;100602.16;10527419;28;20286;-87
2022/08/21 06:02:33;;;;;;;9.73;4.73;;;;;;;19.62;45.45;100596.09;10537704;28;20257;-82
2022/08/21 06:07:55;;;;;;;13.00;4.40;;;;;;;19.92;44.92;100589.44;10526927;28;20859;-83
2022/08/21 06:13:19;;;;;;;7.78;4.35;;;;;;;19.88;45.61;100585.75;10533773;28;20306;-84
2022/08/21 06:18:42;;;;;;;61.08;38.47;;;;;;;19.25;46.71;100609.50;10522604;28;20245;-84
2022/08/21 06:24:04;;;;;;;19.77;12.67;;;;;;;19.33;45.87;100603.47;10534628;28;20226;-83
2022/08/21 06:29:27;;;;;;;18.57;8.00;;;;;;;20.12;44.37;100605.19;10531597;28;20235;-83
2022/08/21 06:34:49;;;;;;;9.27;5.00;;;;;;;20.16;43.58;100599.50;10540560;28;20310;-87
2022/08/21 06:40:11;;;;;;;8.93;5.10;;;;;;;20.63;42.60;100598.69;10538400;28;20191;-87
2022/08/21 06:45:35;;;;;;;11.47;5.97;;;;;;;20.06;43.51;100609.63;10526357;28;20191;-87
2022/08/21 06:51:01;;;;;;;9.60;5.80;;;;;;;20.23;42.97;100596.72;10527794;28;20652;-84
2022/08/21 06:56:23;;;;;;;9.90;5.30;;;;;;;20.60;43.06;100596.59;10530034;28;20688;-87
2022/08/21 07:01:45;;;;;;;11.30;5.63;;;;;;;19.88;43.68;100603.72;10528342;28;20946;-82
2022/08/21 07:07:08;;;;;;;10.30;5.25;;;;;;;19.89;44.19;100601.69;10527919;28;20242;-86
2022/08/21 07:12:31;;;;;;;9.40;6.50;;;;;;;18.64;47.04;100602.06;10556957;28;20284;-83
2022/08/21 07:17:53;;;;;;;14.30;6.60;;;;;;;19.67;45.14;100601.44;10571854;28;20248;-86
2022/08/21 07:23:23;;;;;;;12.53;6.87;;;;;;;20.32;43.35;100598.03;10543904;28;20218;-85
2022/08/21 07:28:45;;;;;;;11.80;6.53;;;;;;;19.68;45.14;100593.69;10570997;28;20217;-80
2022/08/21 07:34:08;;;;;;;13.32;7.93;;;;;;;20.18;44.63;100595.03;10582748;28;20197;-83
2022/08/21 07:39:30;;;;;;;13.47;7.80;;;;;;;20.87;42.79;100585.75;10554151;28;20237;-82
2022/08/21 07:44:52;;;;;;;15.45;7.38;;;;;;;19.59;45.39;100594.03;10553817;28;20206;-81
2022/08/21 07:50:14;;;;;;;13.73;8.65;;;;;;;19.27;46.50;100596.44;10556642;28;20182;-82
2022/08/21 07:55:37;;;;;;;15.18;7.82;;;;;;;20.15;44.02;100597.84;10541661;28;20225;-80
2022/08/21 08:00:59;;;;;;;14.30;7.90;;;;;;;21.18;41.39;100590.84;10574014;28;20290;-84
2022/08/21 08:06:22;;;;;;;9.50;6.97;;;;;;;20.35;43.21;100588.66;10538074;28;20245;-80
2022/08/21 08:11:45;;;;;;;12.70;6.90;;;;;;;21.07;41.13;100589.97;10559173;28;20222;-83
2022/08/21 08:17:08;;;;;;;14.68;6.35;;;;;;;20.98;40.74;100586.63;10566280;28;20303;-80
2022/08/21 08:22:30;;;;;;;11.40;6.20;;;;;;;21.20;39.52;100593.31;10545772;27;20243;-84
2022/08/21 08:27:52;;;;;;;11.63;4.68;;;;;;;21.69;37.55;100587.78;10579942;27;20598;-79
2022/08/21 08:33:15;;;;;;;7.82;4.00;;;;;;;21.04;39.35;100580.13;10562052;28;20193;-82
2022/08/21 08:38:37;;;;;;;12.80;2.70;;;;;;;21.58;35.34;100574.66;10551223;28;20241;-83
2022/08/21 08:44:05;;;;;;;9.85;3.22;;;;;;;21.00;36.82;100578.47;10563961;27;20198;-82
2022/08/21 08:49:36;;;;;;;5.68;2.65;;;;;;;21.64;36.38;100573.81;10589569;27;20258;-81
2022/08/21 08:55:18;;;;;;;8.68;2.33;;;;;;;21.50;35.13;100573.78;10547142;27;20202;-82
2022/08/21 09:00:40;;;;;;;7.82;2.05;;;;;;;21.01;35.62;100580.09;10564080;27;20536;-81
2022/08/21 09:06:21;;;;;;;5.88;2.40;;;;;;;21.72;35.82;100575.50;10567101;27;20248;-81
2022/08/21 09:11:51;;;;;;;7.72;2.50;;;;;;;23.00;34.79;100568.91;10571305;27;20248;-81
2022/08/21 09:17:27;;;;;;;9.05;2.28;;;;;;;22.76;34.14;100559.97;10555314;27;20236;-82
2022/08/21 09:23:04;;;;;;;8.35;2.55;;;;;;;22.89;32.98;100557.47;10553767;28;20237;-82
2022/08/21 09:28:26;;;;;;;10.35;2.20;;;;;;;23.54;32.54;100544.47;10563410;27;20318;-84
2022/08/21 09:33:49;;;;;;;7.82;1.80;;;;;;;23.12;33.68;100543.44;10546634;28;20238;-84
2022/08/21 09:39:21;;;;;;;11.80;1.98;;;;;;;23.56;33.29;100550.59;10561544;28;20241;-84
2022/08/21 09:44:44;;;;;;;7.30;1.60;;;;;;;23.56;32.71;100550.59;10560876;28;20222;-80
2022/08/21 09:50:33;;;;;;;4.03;1.55;;;;;;;23.28;32.75;100545.00;10575446;28;20209;-82
2022/08/21 10:01:51;;;;;;;5.82;1.15;;;;;;;23.43;32.63;100540.78;10561522;28;20194;-82
2022/08/21 10:07:14;;;;;;;10.50;1.70;;;;;;;23.73;31.76;100532.44;10573835;27;20278;-80
2022/08/21 10:12:56;;;;;;;5.38;1.80;;;;;;;23.35;31.77;100533.47;10565492;27;20261;-84
2022/08/21 10:18:26;;;;;;;6.20;1.58;;;;;;;24.03;31.68;100522.34;10573187;27;20294;-82
2022/08/21 10:23:54;;;;;;;7.50;2.03;;;;;;;23.34;32.98;100523.19;10557935;27;20283;-84
2022/08/21 10:29:24;;;;;;;6.88;2.20;;;;;;;24.20;32.32;100521.38;10561658;27;20193;-88
2022/08/21 10:35:00;;;;;;;6.82;1.73;;;;;;;23.10;31.70;100528.66;10544263;28;20295;-84
2022/08/21 10:40:49;;;;;;;6.13;1.52;;;;;;;23.14;31.89;100526.59;10538113;28;20304;-84
2022/08/21 10:46:17;;;;;;;5.40;1.65;;;;;;;23.83;32.17;100517.13;10555213;27;20240;-84
2022/08/21 10:51:55;;;;;;;5.53;1.75;;;;;;;22.98;32.61;100514.72;10574256;28;20270;-85
2022/08/21 10:57:41;;;;;;;6.63;1.75;;;;;;;24.62;31.24;100497.91;10550645;27;20253;-83
2022/08/21 11:03:17;;;;;;;5.40;1.40;;;;;;;24.80;30.79;100502.69;10527730;28;20356;-82
2022/08/21 11:08:43;;;;;;;4.55;1.58;;;;;;;23.97;29.92;100507.56;10545494;28;20631;-85
2022/08/21 11:14:24;;;;;;;4.55;1.17;;;;;;;23.72;30.92;100502.00;10543446;28;20253;-85
2022/08/21 11:20:04;;;;;;;2.78;1.00;;;;;;;24.57;29.32;100500.44;10547983;28;20631;-84
2022/08/21 11:26:01;;;;;;;7.20;1.40;;;;;;;24.56;28.94;100487.28;10545573;28;20284;-84
2022/08/21 11:32:02;;;;;;;3.95;1.33;;;;;;;24.05;30.16;100491.06;10550741;28;20701;-85
2022/08/21 11:37:43;;;;;;;7.05;1.23;;;;;;;25.18;29.07;100495.59;10545246;28;20596;-85
2022/08/21 11:43:42;;;;;;;4.63;1.33;;;;;;;25.63;28.38;100486.72;10559152;28;20296;-84
2022/08/21 11:49:06;;;;;;;4.28;1.00;;;;;;;24.84;28.99;100494.81;10567652;28;20258;-82
2022/08/21 11:54:40;;;;;;;3.97;0.90;;;;;;;23.83;29.58;100499.03;10551147;28;20214;-83
2022/08/21 12:00:11;;;;;;;4.53;1.02;;;;;;;24.01;29.10;100507.53;10582220;27;20245;-84
2022/08/21 12:05:37;;;;;;;6.28;0.95;;;;;;;25.03;28.29;100494.13;10552329;27;20544;-84
2022/08/21 12:11:16;;;;;;;6.63;1.73;;;;;;;24.56;28.45;100493.88;10547083;27;20321;-82
2022/08/21 12:16:44;;;;;;;3.13;1.13;;;;;;;25.64;27.84;100494.13;10565153;27;20693;-82
2022/08/21 12:22:11;;;;;;;1.77;0.43;;;;;;;24.41;28.20;100494.44;10558840;27;20234;-81
2022/08/21 12:27:53;;;;;;;2.75;0.70;;;;;;;25.42;26.77;100492.81;10571051;27;20225;-82
2022/08/21 12:33:20;;;;;;;8.85;1.50;;;;;;;25.25;27.92;100483.16;10542676;27;20286;-81
2022/08/21 12:38:50;;;;;;;2.17;0.65;;;;;;;25.64;27.23;100482.56;10560270;28;20655;-81
2022/08/21 12:44:20;;;;;;;1.60;0.80;;;;;;;25.99;27.80;100490.69;10562601;27;20573;-83
2022/08/21 12:49:54;;;;;;;2.50;0.55;;;;;;;26.24;26.65;100486.56;10562832;27;20229;-82
2022/08/21 12:55:27;;;;;;;2.53;0.52;;;;;;;25.42;26.12;100484.97;10551985;28;20580;-82
2022/08/21 13:00:54;;;;;;;2.15;0.65;;;;;;;25.47;26.07;100483.69;10543956;27;20241;-81
2022/08/21 13:06:19;;;;;;;3.00;0.50;;;;;;;24.85;26.64;100476.25;10535921;28;20241;-82
2022/08/21 13:11:42;;;;;;;1.48;0.70;;;;;;;24.00;27.60;100477.09;10542754;28;20245;-82
2022/08/21 13:17:06;;;;;;;2.85;0.85;;;;;;;24.95;27.24;100472.44;10543681;27;20246;-82
2022/08/21 13:22:29;;;;;;;1.30;0.50;;;;;;;24.86;27.19;100477.88;10533094;27;20591;-83
2022/08/21 13:28:07;;;;;;;2.83;0.50;;;;;;;26.12;25.53;100472.75;10526265;27;20251;-82
2022/08/21 13:33:33;;;;;;;5.32;0.80;;;;;;;26.08;25.55;100471.97;10552703;27;20668;-83
2022/08/21 13:38:56;;;;;;;4.15;0.70;;;;;;;26.43;26.05;100468.44;10571496;27;20205;-82
2022/08/21 13:44:21;;;;;;;2.47;0.38;;;;;;;25.33;26.06;100468.22;10552568;27;20223;-83
2022/08/21 13:49:48;;;;;;;2.83;0.77;;;;;;;26.05;26.01;100477.38;10553876;28;20225;-83
2022/08/21 13:55:15;;;;;;;2.13;0.60;;;;;;;25.62;25.79;100470.66;10561086;27;20198;-82
2022/08/21 14:00:48;;;;;;;2.92;0.45;;;;;;;25.56;25.57;100469.50;10544385;27;20249;-82
2022/08/21 14:06:23;;;;;;;1.80;0.55;;;;;;;24.93;26.96;100466.28;10539572;27;20210;-79
2022/08/21 14:11:47;;;;;;;1.60;0.50;;;;;;;24.83;26.58;100467.22;10544323;27;20254;-83
2022/08/21 14:17:13;;;;;;;1.25;0.52;;;;;;;26.10;25.82;100452.13;10534313;28;20298;-80
2022/08/21 14:22:40;;;;;;;2.13;0.77;;;;;;;25.80;25.13;100461.72;10548666;27;20190;-81
2022/08/21 14:28:04;;;;;;;2.05;0.40;;;;;;;25.72;25.64;100458.13;10529086;27;20225;-81
2022/08/21 14:33:31;;;;;;;1.73;0.57;;;;;;;25.53;25.90;100467.50;10516067;28;20233;-81
2022/08/21 14:38:54;;;;;;;2.30;0.73;;;;;;;24.62;26.63;100463.31;10524280;28;20245;-82
2022/08/21 14:44:18;;;;;;;2.17;0.75;;;;;;;25.08;26.38;100459.06;10542550;27;20230;-81
2022/08/21 14:49:42;;;;;;;1.90;0.43;;;;;;;25.30;27.47;100457.53;10549550;28;20226;-81
2022/08/21 14:55:06;;;;;;;2.90;0.52;;;;;;;25.34;26.83;100461.19;10533074;28;20293;-81
2022/08/21 15:00:29;;;;;;;1.92;0.52;;;;;;;25.54;26.68;100448.94;10535859;28;20268;-81
2022/08/21 15:05:52;;;;;;;1.83;0.47;;;;;;;25.83;26.57;100441.47;10528158;27;20296;-82
2022/08/21 15:11:20;;;;;;;1.52;0.60;;;;;;;25.72;26.77;100444.50;10553915;28;20240;-82
2022/08/21 15:16:42;;;;;;;1.00;0.40;;;;;;;25.72;27.14;100449.47;10535413;28;20278;-81
2022/08/21 15:22:04;;;;;;;2.13;0.52;;;;;;;25.15;27.08;100447.41;10549476;28;20217;-83
2022/08/21 15:27:33;;;;;;;3.40;0.82;;;;;;;24.37;27.97;100450.44;10560003;28;20225;-83
2022/08/21 15:33:06;;;;;;;2.22;0.57;;;;;;;24.51;28.60;100450.28;10535176;28;20275;-82
2022/08/21 15:38:37;;;;;;;1.70;0.40;;;;;;;25.15;27.01;100444.53;10550951;27;20249;-83
2022/08/21 15:43:59;;;;;;;1.40;0.50;;;;;;;24.46;27.88;100442.13;10551781;27;20247;-82
2022/08/21 15:49:22;;;;;;;3.63;0.70;;;;;;;24.83;27.44;100438.41;10530081;27;20558;-83
2022/08/21 15:54:44;;;;;;;1.50;0.50;;;;;;;25.45;28.26;100435.06;10540261;27;20237;-83
2022/08/21 16:00:22;;;;;;;1.30;0.57;;;;;;;24.00;28.94;100440.50;10547162;28;20619;-82
2022/08/21 16:05:48;;;;;;;1.75;0.90;;;;;;;23.98;28.59;100439.28;10543221;27;20229;-82
2022/08/21 16:11:11;;;;;;;4.20;0.82;;;;;;;24.60;28.86;100439.03;10528429;27;20315;-83
2022/08/21 16:16:34;;;;;;;4.22;0.50;;;;;;;24.90;28.02;100438.28;10529342;27;20756;-82
2022/08/21 16:21:56;;;;;;;3.17;0.88;;;;;;;24.41;28.41;100434.75;10545071;27;20730;-83
2022/08/21 16:27:18;;;;;;;1.42;0.95;;;;;;;24.33;29.09;100438.94;10541440;28;20279;-82
2022/08/21 16:32:42;;;;;;;2.35;1.00;;;;;;;25.48;28.11;100433.38;10528252;28;20242;-83
2022/08/21 16:38:04;;;;;;;2.78;1.05;;;;;;;24.91;28.93;100425.50;10552196;27;20245;-82
2022/08/21 16:43:28;;;;;;;3.47;0.80;;;;;;;24.59;28.47;100435.34;10562583;27;20214;-83
2022/08/21 16:48:50;;;;;;;5.38;0.90;;;;;;;25.16;28.92;100433.81;10554366;27;20301;-83
2022/08/21 16:54:12;;;;;;;3.13;0.90;;;;;;;25.16;27.62;100423.09;10572968;27;20218;-84
2022/08/21 16:59:35;;;;;;;4.55;1.92;;;;;;;25.35;27.68;100433.97;10522414;27;20261;-83
2022/08/21 17:04:57;;;;;;;3.00;1.00;;;;;;;25.37;27.67;100426.94;10577701;27;20539;-84
2022/08/21 17:10:20;;;;;;;3.25;0.73;;;;;;;25.25;28.46;100431.22;10535445;27;20262;-83
2022/08/21 17:15:42;;;;;;;3.40;1.10;;;;;;;24.56;29.03;100433.34;10557535;27;20680;-83
2022/08/21 17:21:05;;;;;;;4.70;1.13;;;;;;;25.50;27.60;100430.84;10558511;27;20268;-83
2022/08/21 17:26:27;;;;;;;2.63;0.80;;;;;;;24.67;29.52;100436.91;10523460;27;20234;-83
2022/08/21 17:31:49;;;;;;;2.80;0.68;;;;;;;24.39;29.48;100436.44;10554418;28;20283;-82
2022/08/21 17:37:12;;;;;;;3.25;0.63;;;;;;;24.53;29.49;100439.16;10557290;28;20594;-82
2022/08/21 17:42:35;;;;;;;4.53;0.88;;;;;;;24.63;29.22;100436.13;10539798;27;20221;-82
2022/08/21 17:47:57;;;;;;;2.17;0.57;;;;;;;25.18;28.62;100428.44;10544523;27;20237;-82
2022/08/21 17:53:19;;;;;;;4.43;1.08;;;;;;;25.45;28.09;100440.00;10563613;27;20202;-81
2022/08/21 17:58:49;;;;;;;6.65;1.17;;;;;;;25.28;29.73;100448.50;10550824;27;20229;-82
2022/08/21 18:04:11;;;;;;;3.30;1.02;;;;;;;25.04;29.16;100449.63;10548194;28;20233;-82
2022/08/21 18:09:34;;;;;;;2.95;0.77;;;;;;;25.10;28.78;100445.03;10571284;27;20538;-81
2022/08/21 18:14:56;;;;;;;2.28;1.00;;;;;;;25.11;28.91;100455.28;10561321;28;20229;-82
2022/08/21 18:20:22;;;;;;;3.38;0.75;;;;;;;24.74;29.34;100446.72;10559015;28;20306;-83
2022/08/21 18:25:48;;;;;;;3.50;0.70;;;;;;;24.24;31.06;100458.81;10548327;27;20225;-83
2022/08/21 18:31:13;;;;;;;3.05;1.20;;;;;;;24.41;29.72;100452.03;10547166;27;20202;-84
2022/08/21 18:36:37;;;;;;;4.07;0.93;;;;;;;24.53;29.56;100454.38;10537146;28;20225;-84
2022/08/21 18:42:07;;;;;;;3.63;0.95;;;;;;;24.23;30.33;100454.28;10562884;28;20310;-84
2022/08/21 18:47:47;;;;;;;3.97;1.25;;;;;;;24.27;31.07;100458.78;10538293;27;20653;-83
2022/08/21 18:53:09;;;;;;;6.38;1.23;;;;;;;23.89;32.04;100462.81;10552443;28;20229;-85
2022/08/21 18:58:32;;;;;;;4.18;1.55;;;;;;;23.66;32.45;100460.53;10547954;27;20672;-85
2022/08/21 19:03:54;;;;;;;4.22;1.20;;;;;;;23.66;32.49;100474.13;10528310;27;20261;-84
2022/08/21 19:09:16;;;;;;;5.40;1.63;;;;;;;23.19;33.25;100473.56;10533153;27;20298;-82
2022/08/21 19:14:38;;;;;;;3.95;1.80;;;;;;;22.97;34.61;100481.44;10553037;28;20612;-83
2022/08/21 19:20:07;;;;;;;5.15;1.40;;;;;;;23.39;33.81;100476.72;10553374;28;20667;-82
2022/08/21 19:25:30;;;;;;;5.47;2.20;;;;;;;22.67;35.33;100484.03;10533620;28;20274;-83
2022/08/21 19:31:15;;;;;;;7.22;2.20;;;;;;;22.39;36.43;100487.75;10532082;28;20607;-83
2022/08/21 19:36:38;;;;;;;8.07;2.40;;;;;;;22.19;37.58;100493.13;10529597;28;20282;-83
2022/08/21 19:42:00;;;;;;;10.70;3.70;;;;;;;22.15;36.69;100501.75;10568799;28;20286;-83
2022/08/21 19:47:23;;;;;;;10.30;3.58;;;;;;;22.30;35.79;100502.53;10554137;28;20229;-83
2022/08/21 19:52:45;;;;;;;5.25;2.47;;;;;;;22.04;33.92;100502.97;10579048;28;20181;-82
2022/08/21 19:58:16;;;;;;;9.20;2.15;;;;;;;22.18;33.79;100500.91;10554600;28;20229;-83
2022/08/21 20:03:38;;;;;;;7.35;1.95;;;;;;;22.03;34.49;100499.28;10540854;28;20266;-83
2022/08/21 20:09:01;;;;;;;5.30;1.63;;;;;;;21.71;34.79;100502.13;10553161;28;20286;-82
2022/08/21 20:14:26;;;;;;;4.07;1.50;;;;;;;21.74;35.45;100504.16;10548169;28;20257;-82
2022/08/21 20:19:49;;;;;;;3.08;1.30;;;;;;;21.74;33.43;100509.91;10562303;27;20245;-82
2022/08/21 20:25:11;;;;;;;5.28;1.52;;;;;;;21.89;34.65;100512.78;10537407;27;20229;-83
2022/08/21 20:30:34;;;;;;;4.03;1.20;;;;;;;21.65;35.46;100512.34;10549782;27;20319;-82
2022/08/21 20:35:56;;;;;;;5.25;1.67;;;;;;;21.64;35.92;100504.16;10560837;27;20539;-83
2022/08/21 20:41:20;;;;;;;4.50;0.93;;;;;;;21.66;35.36;100502.53;10566919;27;20308;-82
2022/08/21 20:46:42;;;;;;;5.05;1.63;;;;;;;21.57;35.56;100502.13;10562593;27;20290;-83
2022/08/21 20:52:06;;;;;;;4.78;1.25;;;;;;;21.43;36.00;100504.94;10587752;27;20221;-83
2022/08/21 20:57:42;;;;;;;3.80;1.48;;;;;;;21.21;36.51;100514.69;10581818;27;20201;-83
2022/08/21 21:03:18;;;;;;;8.43;1.65;;;;;;;21.29;35.88;100505.69;10543726;28;20326;-83
2022/08/21 21:08:53;;;;;;;5.90;1.23;;;;;;;21.41;34.69;100513.13;10535362;27;20248;-83
2022/08/21 21:14:22;;;;;;;5.25;1.58;;;;;;;21.72;34.13;100506.66;10558302;27;20256;-83
2022/08/21 21:19:48;;;;;;;4.00;1.42;;;;;;;21.44;36.03;100512.31;10570206;27;20245;-82
2022/08/21 21:25:33;;;;;;;3.33;1.63;;;;;;;22.37;33.60;100496.81;10543372;27;20286;-82
2022/08/21 21:30:55;;;;;;;8.98;2.17;;;;;;;21.86;35.25;100495.16;10559459;27;20378;-83
2022/08/21 21:36:28;;;;;;;8.35;2.55;;;;;;;22.09;35.48;100505.44;10559562;28;20221;-83
2022/08/21 21:42:25;;;;;;;5.78;2.25;;;;;;;22.06;34.93;100504.22;10562678;27;20248;-82
2022/08/21 21:48:13;;;;;;;5.35;2.17;;;;;;;22.17;35.47;100504.19;10571758;27;20211;-83
2022/08/21 21:53:55;;;;;;;5.00;1.98;;;;;;;21.46;36.81;100510.69;10549330;27;20258;-83
2022/08/21 21:59:50;;;;;;;3.70;1.52;;;;;;;21.78;37.02;100510.72;10562643;27;20278;-83
2022/08/21 22:05:34;;;;;;;6.13;2.42;;;;;;;22.05;36.51;100519.78;10569325;28;20194;-83
2022/08/21 22:11:02;;;;;;;4.25;1.52;;;;;;;21.76;36.73;100510.31;10560930;28;20635;-83
2022/08/21 22:16:24;;;;;;;5.20;1.90;;;;;;;22.00;36.46;100516.50;10558302;28;20194;-83
2022/08/21 22:21:55;;;;;;;7.00;2.00;;;;;;;21.88;36.64;100519.75;10554295;27;20266;-83
2022/08/21 22:27:25;;;;;;;5.10;2.28;;;;;;;21.99;37.30;100515.69;10546018;28;20198;-83
2022/08/21 22:32:48;;;;;;;6.50;2.60;;;;;;;21.80;37.06;100516.88;10551684;27;20219;-83
2022/08/21 22:38:25;;;;;;;11.52;2.60;;;;;;;21.94;36.79;100518.13;10560954;28;20586;-82
2022/08/21 22:44:00;;;;;;;7.10;2.47;;;;;;;21.98;37.88;100516.94;10589203;27;20193;-82
2022/08/21 22:49:35;;;;;;;8.32;2.88;;;;;;;22.16;36.98;100519.78;10560558;28;20190;-83
2022/08/21 22:55:03;;;;;;;8.45;2.58;;;;;;;21.83;37.96;100524.69;10552380;28;20661;-82
2022/08/21 23:01:04;;;;;;;8.18;2.30;;;;;;;21.59;39.28;100528.34;10565008;28;20213;-83
2022/08/21 23:06:36;;;;;;;5.80;2.35;;;;;;;21.20;38.93;100518.78;10543017;28;20820;-82
2022/08/21 23:12:22;;;;;;;12.77;3.58;;;;;;;21.05;40.01;100521.59;10563871;28;20645;-82
2022/08/21 23:17:45;;;;;;;9.25;3.25;;;;;;;21.74;38.26;100518.50;10553801;28;20194;-82
2022/08/21 23:23:16;;;;;;;11.80;3.20;;;;;;;21.81;38.19;100509.09;10580771;28;20235;-82
2022/08/21 23:29:08;;;;;;;11.18;3.08;;;;;;;21.88;38.18;100525.50;10565675;28;20330;-83
2022/08/21 23:34:57;;;;;;;9.77;2.83;;;;;;;21.52;39.60;100518.88;10581724;28;20197;-83
2022/08/21 23:40:33;;;;;;;9.18;3.53;;;;;;;21.49;38.85;100521.34;10565988;28;20479;-83
2022/08/21 23:46:20;;;;;;;11.13;3.80;;;;;;;21.61;39.96;100522.16;10546462;28;20220;-83
2022/08/21 23:52:12;;;;;;;8.63;3.85;;;;;;;21.69;39.09;100518.09;10554426;27;20197;-83
2022/08/21 23:57:49;;;;;;;8.90;3.92;;;;;;;21.61;39.69;100522.16;10595677;27;20223;-82
